createdAt,value
2022-07-26T00:00:41.173Z,25.57
2022-07-26T00:03:28.224Z,25.55
2022-07-26T00:06:15.447Z,25.52
2022-07-26T00:09:06.184Z,25.49
2022-07-26T00:11:53.533Z,25.48
2022-07-26T00:14:40.495Z,25.46
2022-07-26T00:17:28.122Z,25.43
2022-07-26T00:20:15.039Z,25.41
2022-07-26T00:23:02.551Z,25.41
2022-07-26T00:25:49.696Z,25.39
2022-07-26T00:28:36.893Z,25.37
2022-07-26T00:31:23.919Z,25.34
2022-07-26T00:34:10.975Z,25.34
2022-07-26T00:36:57.908Z,25.32
2022-07-26T00:39:44.957Z,25.30
2022-07-26T00:42:32.033Z,25.28
2022-07-26T00:45:19.077Z,25.25
2022-07-26T00:48:06.425Z,25.23
2022-07-26T00:50:54.683Z,25.22
2022-07-26T00:53:41.708Z,25.21
2022-07-26T00:56:29.280Z,25.20
2022-07-26T00:59:16.239Z,25.19
2022-07-26T01:02:05.087Z,25.18
2022-07-26T01:04:52.092Z,25.18
2022-07-26T01:07:40.157Z,25.17
2022-07-26T01:10:27.115Z,25.17
2022-07-26T01:13:19.864Z,25.17
2022-07-26T01:16:07.063Z,25.15
2022-07-26T01:18:54.178Z,25.14
2022-07-26T01:21:41.259Z,25.14
2022-07-26T01:24:28.326Z,25.12
2022-07-26T01:27:15.341Z,25.12
2022-07-26T01:30:02.279Z,25.11
2022-07-26T01:32:49.386Z,25.09
2022-07-26T01:35:36.307Z,25.08
2022-07-26T01:38:23.205Z,25.05
2022-07-26T01:41:10.873Z,25.04
2022-07-26T01:43:57.786Z,25.02
2022-07-26T01:46:44.821Z,25.00
2022-07-26T01:49:31.737Z,24.98
2022-07-26T01:52:18.931Z,24.96
2022-07-26T01:55:06.064Z,24.94
2022-07-26T01:57:53.641Z,24.91
2022-07-26T02:00:40.593Z,24.90
2022-07-26T02:03:27.616Z,24.88
2022-07-26T02:06:14.550Z,24.85
2022-07-26T02:09:02.064Z,24.85
2022-07-26T02:11:49.282Z,24.82
2022-07-26T02:14:36.585Z,24.80
2022-07-26T02:17:23.535Z,24.78
2022-07-26T02:20:10.876Z,24.77
2022-07-26T02:22:57.781Z,24.76
2022-07-26T02:25:44.830Z,24.75
2022-07-26T02:28:31.751Z,24.72
2022-07-26T02:31:18.715Z,24.70
2022-07-26T02:34:06.188Z,24.69
2022-07-26T02:36:53.364Z,24.66
2022-07-26T02:39:40.282Z,24.65
2022-07-26T02:42:27.229Z,24.61
2022-07-26T02:45:14.281Z,24.59
2022-07-26T02:48:01.736Z,24.57
2022-07-26T02:50:48.709Z,24.53
2022-07-26T02:53:35.618Z,24.51
2022-07-26T02:56:22.993Z,24.48
2022-07-26T02:59:10.789Z,24.44
2022-07-26T03:01:58.529Z,24.41
2022-07-26T03:04:45.665Z,24.39
2022-07-26T03:07:33.353Z,24.37
2022-07-26T03:10:20.745Z,24.36
2022-07-26T03:13:07.644Z,24.33
2022-07-26T03:15:54.584Z,24.30
2022-07-26T03:18:41.601Z,24.29
2022-07-26T03:21:28.753Z,24.27
2022-07-26T03:24:15.748Z,24.27
2022-07-26T03:27:02.772Z,24.25
2022-07-26T03:29:49.693Z,24.25
2022-07-26T03:32:36.712Z,24.23
2022-07-26T03:35:23.648Z,24.22
2022-07-26T03:38:10.613Z,24.20
2022-07-26T03:40:57.738Z,24.18
2022-07-26T03:43:44.790Z,24.17
2022-07-26T03:46:31.822Z,24.14
2022-07-26T03:49:19.063Z,24.15
2022-07-26T03:52:06.655Z,24.14
2022-07-26T03:54:53.633Z,24.14
2022-07-26T03:57:40.537Z,24.13
2022-07-26T04:00:27.609Z,24.13
2022-07-26T04:03:14.562Z,24.12
2022-07-26T04:06:02.308Z,24.11
2022-07-26T04:08:50.514Z,24.11
2022-07-26T04:11:37.533Z,24.10
2022-07-26T04:14:24.570Z,24.09
2022-07-26T04:17:11.530Z,24.07
2022-07-26T04:19:59.105Z,24.06
2022-07-26T04:22:46.086Z,24.04
2022-07-26T04:25:41.080Z,24.04
2022-07-26T04:28:29.143Z,24.04
2022-07-26T04:31:16.477Z,24.02
2022-07-26T04:34:03.626Z,24.02
2022-07-26T04:36:50.560Z,23.99
2022-07-26T04:39:37.569Z,23.96
2022-07-26T04:42:24.640Z,23.94
2022-07-26T04:45:15.681Z,23.93
2022-07-26T04:48:02.983Z,23.92
2022-07-26T04:50:49.903Z,23.93
2022-07-26T04:53:36.841Z,23.92
2022-07-26T04:56:23.771Z,23.94
2022-07-26T04:59:10.790Z,23.94
2022-07-26T05:01:57.907Z,23.94
2022-07-26T05:04:45.660Z,23.94
2022-07-26T05:07:44.548Z,23.96
2022-07-26T05:10:35.414Z,23.97
2022-07-26T05:13:29.382Z,24.02
2022-07-26T05:16:18.056Z,24.12
2022-07-26T05:19:05.574Z,24.16
2022-07-26T05:21:52.677Z,24.19
2022-07-26T05:24:39.572Z,24.23
2022-07-26T05:27:27.472Z,24.27
2022-07-26T05:30:14.473Z,24.31
2022-07-26T05:33:01.431Z,24.36
2022-07-26T05:35:48.392Z,24.40
2022-07-26T05:38:35.351Z,24.41
2022-07-26T05:41:22.709Z,24.43
2022-07-26T05:44:10.638Z,24.44
2022-07-26T05:46:58.019Z,24.45
2022-07-26T05:49:45.410Z,24.46
2022-07-26T05:52:32.627Z,24.48
2022-07-26T05:55:20.035Z,24.50
2022-07-26T05:58:07.012Z,24.52
2022-07-26T06:00:53.989Z,24.53
2022-07-26T06:03:40.958Z,24.53
2022-07-26T06:06:28.090Z,24.54
2022-07-26T06:12:02.195Z,24.46
2022-07-26T06:14:49.137Z,24.44
2022-07-26T06:17:40.997Z,24.43
2022-07-26T06:20:28.117Z,24.42
2022-07-26T06:23:15.358Z,24.43
2022-07-26T06:26:03.873Z,24.44
2022-07-26T06:28:51.606Z,24.43
2022-07-26T06:31:38.841Z,24.43
2022-07-26T06:34:25.852Z,24.42
2022-07-26T06:37:12.877Z,24.42
2022-07-26T06:39:59.778Z,24.41
2022-07-26T06:42:46.737Z,24.41
2022-07-26T06:45:34.086Z,24.42
2022-07-26T06:48:21.460Z,24.42
2022-07-26T06:51:10.193Z,24.41
2022-07-26T06:53:57.245Z,24.40
2022-07-26T06:56:47.781Z,24.35
2022-07-26T06:59:35.008Z,24.27
2022-07-26T07:02:22.052Z,24.20
2022-07-26T07:05:09.489Z,24.15
2022-07-26T07:07:56.589Z,24.11
2022-07-26T07:10:44.690Z,24.07
2022-07-26T07:13:31.609Z,24.04
2022-07-26T07:16:18.688Z,24.03
2022-07-26T07:19:05.845Z,24.03
2022-07-26T07:21:53.252Z,24.01
2022-07-26T07:24:41.817Z,23.99
2022-07-26T07:27:28.760Z,23.96
2022-07-26T07:30:17.156Z,23.95
2022-07-26T07:33:04.261Z,23.94
2022-07-26T07:35:52.443Z,23.94
2022-07-26T07:38:42.843Z,23.94
2022-07-26T07:41:29.938Z,23.93
2022-07-26T07:44:17.115Z,23.91
2022-07-26T07:47:04.346Z,23.95
2022-07-26T07:49:51.308Z,23.95
2022-07-26T07:52:38.410Z,23.96
2022-07-26T07:55:43.972Z,23.95
2022-07-26T07:58:33.417Z,23.94
2022-07-26T08:01:21.024Z,23.97
2022-07-26T08:04:09.157Z,23.99
2022-07-26T08:06:56.272Z,23.98
2022-07-26T08:09:44.453Z,23.99
2022-07-26T08:12:31.570Z,23.99
2022-07-26T08:15:19.551Z,23.97
2022-07-26T08:18:08.727Z,23.94
2022-07-26T08:20:55.917Z,23.91
2022-07-26T08:23:42.834Z,23.88
2022-07-26T08:26:29.869Z,23.87
2022-07-26T08:29:17.368Z,23.88
2022-07-26T08:32:05.210Z,23.88
2022-07-26T08:34:52.304Z,23.86
2022-07-26T08:37:39.362Z,23.86
2022-07-26T08:40:26.379Z,23.84
2022-07-26T08:43:13.569Z,23.84
2022-07-26T08:46:03.721Z,23.86
2022-07-26T08:48:50.741Z,23.88
2022-07-26T08:51:40.176Z,23.90
2022-07-26T08:54:27.353Z,23.92
2022-07-26T08:57:15.122Z,23.96
2022-07-26T09:00:20.212Z,24.01
2022-07-26T09:03:07.333Z,24.06
2022-07-26T09:05:54.384Z,24.12
2022-07-26T09:08:41.766Z,24.19
2022-07-26T09:11:31.459Z,24.24
2022-07-26T09:14:18.634Z,24.26
2022-07-26T09:17:06.228Z,24.24
2022-07-26T09:20:04.682Z,24.21
2022-07-26T09:23:02.162Z,24.19
2022-07-26T09:25:49.197Z,24.18
2022-07-26T09:28:36.205Z,24.17
2022-07-26T09:31:31.978Z,24.17
2022-07-26T09:34:26.020Z,24.17
2022-07-26T09:37:13.079Z,24.18
2022-07-26T09:40:01.744Z,24.24
2022-07-26T09:43:00.194Z,24.31
2022-07-26T09:46:02.919Z,24.39
2022-07-26T09:49:10.118Z,24.44
2022-07-26T09:51:57.041Z,24.48
2022-07-26T09:54:46.827Z,24.51
2022-07-26T09:57:35.297Z,24.51
2022-07-26T10:00:22.633Z,24.51
2022-07-26T10:03:09.920Z,24.56
2022-07-26T10:05:58.885Z,24.61
2022-07-26T10:08:46.405Z,24.62
2022-07-26T10:11:47.613Z,24.69
2022-07-26T10:14:49.448Z,24.72
2022-07-26T10:17:41.578Z,24.71
2022-07-26T10:20:42.294Z,24.74
2022-07-26T10:23:45.554Z,24.74
2022-07-26T10:26:32.464Z,24.77
2022-07-26T10:29:20.827Z,24.84
2022-07-26T10:32:09.323Z,24.89
2022-07-26T10:34:56.269Z,24.94
2022-07-26T10:37:58.765Z,25.02
2022-07-26T10:41:08.051Z,25.12
2022-07-26T10:44:25.653Z,25.18
2022-07-26T10:47:18.584Z,25.19
2022-07-26T10:50:07.030Z,25.21
2022-07-26T10:52:59.302Z,25.22
2022-07-26T10:55:55.042Z,25.24
2022-07-26T10:58:43.549Z,25.26
2022-07-26T11:01:41.743Z,25.34
2022-07-26T11:04:28.838Z,25.40
2022-07-26T11:07:16.221Z,25.47
2022-07-26T11:10:03.580Z,25.53
2022-07-26T11:13:09.445Z,25.56
2022-07-26T11:16:01.820Z,25.53
2022-07-26T11:18:48.917Z,25.50
2022-07-26T11:21:35.921Z,25.50
2022-07-26T11:24:23.225Z,25.52
2022-07-26T11:27:10.280Z,25.52
2022-07-26T11:30:06.337Z,25.51
2022-07-26T11:32:54.825Z,25.54
2022-07-26T11:35:51.090Z,25.69
2022-07-26T11:38:48.901Z,25.83
2022-07-26T11:41:36.362Z,25.88
2022-07-26T11:44:23.726Z,25.89
2022-07-26T11:47:12.806Z,25.94
2022-07-26T11:50:18.630Z,26.01
2022-07-26T11:53:21.390Z,26.10
2022-07-26T11:56:18.397Z,26.13
2022-07-26T11:59:05.804Z,26.16
2022-07-26T12:01:53.956Z,26.23
2022-07-26T12:04:43.288Z,26.33
2022-07-26T12:07:31.122Z,26.42
2022-07-26T12:10:18.136Z,26.50
2022-07-26T12:13:13.951Z,26.55
2022-07-26T12:16:01.074Z,26.56
2022-07-26T12:18:51.805Z,26.55
2022-07-26T12:21:50.109Z,26.55
2022-07-26T12:24:45.408Z,26.56
2022-07-26T12:27:33.741Z,26.54
2022-07-26T12:30:20.997Z,26.58
2022-07-26T12:33:07.889Z,26.65
2022-07-26T12:36:01.178Z,26.73
2022-07-26T12:38:48.162Z,26.76
2022-07-26T12:41:37.658Z,26.78
2022-07-26T12:44:24.671Z,26.80
2022-07-26T12:47:11.622Z,26.89
2022-07-26T12:49:58.753Z,27.02
2022-07-26T12:52:46.321Z,27.08
2022-07-26T12:55:34.321Z,27.13
2022-07-26T12:58:21.351Z,27.16
2022-07-26T13:01:08.397Z,27.20
2022-07-26T13:03:56.043Z,27.24
2022-07-26T13:06:43.006Z,27.30
2022-07-26T13:09:30.229Z,27.36
2022-07-26T13:12:17.197Z,27.44
2022-07-26T13:15:05.502Z,27.51
2022-07-26T13:17:52.474Z,27.56
2022-07-26T13:20:40.134Z,27.60
2022-07-26T13:23:27.134Z,27.64
2022-07-26T13:26:14.133Z,27.70
2022-07-26T13:29:01.740Z,27.77
2022-07-26T13:31:50.971Z,27.81
2022-07-26T13:34:37.946Z,27.87
2022-07-26T13:37:25.002Z,27.93
2022-07-26T13:40:12.153Z,27.94
2022-07-26T13:42:59.497Z,27.90
2022-07-26T13:45:46.753Z,27.88
2022-07-26T13:48:33.838Z,27.91
2022-07-26T13:51:20.885Z,27.95
2022-07-26T13:54:08.173Z,27.94
2022-07-26T13:56:56.935Z,27.95
2022-07-26T13:59:43.893Z,27.95
2022-07-26T14:02:31.699Z,27.94
2022-07-26T14:05:18.997Z,27.91
2022-07-26T14:08:06.388Z,27.92
2022-07-26T14:10:53.520Z,27.91
2022-07-26T14:13:40.650Z,27.87
2022-07-26T14:16:27.941Z,27.85
2022-07-26T14:19:15.018Z,27.87
2022-07-26T14:22:02.057Z,27.87
2022-07-26T14:24:48.979Z,27.85
2022-07-26T14:27:36.132Z,27.86
2022-07-26T14:30:23.444Z,27.87
2022-07-26T14:33:10.455Z,27.84
2022-07-26T14:35:57.616Z,27.82
2022-07-26T14:38:44.872Z,27.81
2022-07-26T14:41:32.011Z,27.81
2022-07-26T14:44:19.025Z,27.79
2022-07-26T14:47:07.133Z,27.78
2022-07-26T14:49:54.180Z,27.76
2022-07-26T14:52:43.818Z,27.76
2022-07-26T14:55:30.858Z,27.79
2022-07-26T14:58:17.796Z,27.78
2022-07-26T15:01:04.977Z,27.75
2022-07-26T15:03:54.253Z,27.68
2022-07-26T15:06:41.221Z,27.62
2022-07-26T15:09:28.112Z,27.53
2022-07-26T15:12:15.134Z,27.47
2022-07-26T15:15:02.182Z,27.45
2022-07-26T15:17:49.556Z,27.45
2022-07-26T15:20:40.168Z,27.42
2022-07-26T15:23:27.120Z,27.39
2022-07-26T15:26:14.217Z,27.36
2022-07-26T15:29:01.263Z,27.33
2022-07-26T15:31:49.231Z,27.33
2022-07-26T15:34:36.323Z,27.30
2022-07-26T15:37:23.390Z,27.28
2022-07-26T15:40:11.608Z,27.23
2022-07-26T15:42:58.689Z,27.21
2022-07-26T15:45:45.746Z,27.15
2022-07-26T15:48:32.880Z,27.08
2022-07-26T15:51:22.576Z,27.03
2022-07-26T15:54:11.316Z,26.98
2022-07-26T15:56:58.500Z,26.96
2022-07-26T15:59:45.402Z,26.95
2022-07-26T16:02:32.459Z,26.92
2022-07-26T16:05:19.895Z,26.83
2022-07-26T16:08:06.949Z,26.77
2022-07-26T16:10:53.938Z,26.73
2022-07-26T16:13:40.874Z,26.73
2022-07-26T16:16:27.986Z,26.73
2022-07-26T16:19:15.613Z,26.71
2022-07-26T16:22:04.017Z,26.63
2022-07-26T16:24:50.989Z,26.55
2022-07-26T16:27:38.054Z,26.49
2022-07-26T16:30:25.073Z,26.43
2022-07-26T16:33:12.010Z,26.37
2022-07-26T16:36:02.953Z,26.32
2022-07-26T16:38:53.433Z,26.26
2022-07-26T16:41:40.443Z,26.23
2022-07-26T16:44:27.429Z,26.20
2022-07-26T16:47:14.597Z,26.17
2022-07-26T16:50:02.272Z,26.15
2022-07-26T16:52:49.373Z,26.13
2022-07-26T16:55:36.405Z,26.11
2022-07-26T16:58:23.446Z,26.08
2022-07-26T17:01:10.668Z,26.05
2022-07-26T17:03:57.732Z,26.00
2022-07-26T17:07:01.688Z,25.92
2022-07-26T17:09:49.070Z,25.87
2022-07-26T17:12:37.703Z,25.82
2022-07-26T17:15:24.862Z,25.77
2022-07-26T17:18:11.810Z,25.74
2022-07-26T17:20:59.269Z,25.73
2022-07-26T17:23:46.305Z,25.70
2022-07-26T17:26:33.501Z,25.68
2022-07-26T17:29:24.556Z,25.62
2022-07-26T17:32:11.958Z,25.57
2022-07-26T17:34:58.918Z,25.52
2022-07-26T17:37:45.984Z,25.50
2022-07-26T17:40:34.609Z,25.44
2022-07-26T17:43:21.708Z,25.43
2022-07-26T17:46:08.777Z,25.39
2022-07-26T17:48:55.774Z,25.37
2022-07-26T17:51:42.836Z,25.32
2022-07-26T17:54:29.850Z,25.28
2022-07-26T17:57:16.869Z,25.23
2022-07-26T18:00:06.694Z,25.23
2022-07-26T18:02:54.157Z,25.23
2022-07-26T18:05:41.636Z,25.20
2022-07-26T18:08:28.693Z,25.18
2022-07-26T18:11:15.768Z,25.14
2022-07-26T18:14:03.645Z,25.11
2022-07-26T18:16:54.431Z,25.05
2022-07-26T18:19:41.977Z,25.01
2022-07-26T18:22:29.020Z,24.96
2022-07-26T18:25:16.034Z,24.93
2022-07-26T18:28:06.880Z,24.91
2022-07-26T18:30:54.441Z,24.88
2022-07-26T18:33:41.469Z,24.84
2022-07-26T18:36:28.560Z,24.81
2022-07-26T18:39:15.556Z,24.78
2022-07-26T18:42:02.506Z,24.73
2022-07-26T18:44:49.431Z,24.70
2022-07-26T18:47:36.438Z,24.68
2022-07-26T18:50:23.492Z,24.65
2022-07-26T18:53:10.463Z,24.61
2022-07-26T18:55:57.635Z,24.57
2022-07-26T18:58:44.618Z,24.51
2022-07-26T19:01:31.749Z,24.44
2022-07-26T19:04:19.390Z,24.35
2022-07-26T19:07:08.952Z,24.27
2022-07-26T19:09:58.568Z,24.21
2022-07-26T19:12:48.518Z,24.15
2022-07-26T19:15:35.654Z,24.08
2022-07-26T19:18:22.693Z,24.03
2022-07-26T19:21:09.592Z,23.98
2022-07-26T19:23:56.961Z,23.91
2022-07-26T19:26:44.163Z,23.89
2022-07-26T19:29:31.104Z,23.85
2022-07-26T19:32:18.050Z,23.83
2022-07-26T19:35:06.469Z,23.80
2022-07-26T19:37:53.412Z,23.77
2022-07-26T19:40:40.480Z,23.71
2022-07-26T19:43:28.145Z,23.67
2022-07-26T19:46:15.212Z,23.64
2022-07-26T19:49:04.928Z,23.61
2022-07-26T19:51:52.038Z,23.57
2022-07-26T19:54:39.462Z,23.53
2022-07-26T19:57:27.540Z,23.51
2022-07-26T20:00:14.996Z,23.45
2022-07-26T20:03:02.037Z,23.45
2022-07-26T20:05:49.069Z,23.40
2022-07-26T20:08:36.054Z,23.37
2022-07-26T20:11:24.881Z,23.33
2022-07-26T20:14:11.813Z,23.30
2022-07-26T20:16:58.794Z,23.26
2022-07-26T20:19:45.817Z,23.23
2022-07-26T20:22:32.774Z,23.18
2022-07-26T20:25:21.932Z,23.14
2022-07-26T20:28:09.076Z,23.10
2022-07-26T20:30:56.166Z,23.07
2022-07-26T20:33:43.183Z,23.03
2022-07-26T20:36:30.193Z,23.01
2022-07-26T20:39:17.199Z,22.98
2022-07-26T20:42:04.502Z,22.95
2022-07-26T20:44:52.795Z,22.92
2022-07-26T20:47:40.565Z,22.89
2022-07-26T20:50:27.691Z,22.86
2022-07-26T20:53:14.659Z,22.82
2022-07-26T20:56:02.046Z,22.78
2022-07-26T20:58:48.988Z,22.73
2022-07-26T21:01:36.110Z,22.71
2022-07-26T21:04:23.141Z,22.68
2022-07-26T21:07:10.073Z,22.65
2022-07-26T21:09:57.343Z,22.64
2022-07-26T21:12:44.292Z,22.60
2022-07-26T21:15:31.658Z,22.57
2022-07-26T21:18:18.876Z,22.53
2022-07-26T21:21:05.853Z,22.51
2022-07-26T21:23:52.773Z,22.48
2022-07-26T21:26:39.799Z,22.44
2022-07-26T21:29:26.970Z,22.41
2022-07-26T21:32:13.985Z,22.37
2022-07-26T21:35:01.288Z,22.34
2022-07-26T21:37:48.287Z,22.30
2022-07-26T21:40:36.034Z,22.26
2022-07-26T21:43:22.966Z,22.23
2022-07-26T21:46:12.696Z,22.21
2022-07-26T21:49:00.082Z,22.19
2022-07-26T21:51:47.275Z,22.17
2022-07-26T21:54:34.241Z,22.13
2022-07-26T21:57:21.170Z,22.10
2022-07-26T22:00:08.906Z,22.06
2022-07-26T22:02:56.010Z,22.03
2022-07-26T22:05:43.077Z,22.00
2022-07-26T22:08:31.747Z,21.97
2022-07-26T22:11:18.794Z,21.93
2022-07-26T22:14:08.443Z,21.90
2022-07-26T22:16:55.527Z,21.98
2022-07-26T22:19:42.497Z,21.92
2022-07-26T22:22:30.953Z,21.92
2022-07-26T22:25:17.853Z,21.91
2022-07-26T22:28:07.238Z,21.90
2022-07-26T22:30:54.889Z,21.88
2022-07-26T22:33:41.876Z,21.85
2022-07-26T22:36:28.926Z,21.83
2022-07-26T22:39:16.048Z,21.80
2022-07-26T22:42:15.383Z,21.76
2022-07-26T22:45:03.343Z,21.73
2022-07-26T22:47:57.792Z,21.72
2022-07-26T22:50:44.933Z,21.69
2022-07-26T22:53:31.838Z,21.66
2022-07-26T22:56:19.667Z,21.61
2022-07-26T22:59:06.962Z,21.59
2022-07-26T23:01:53.861Z,21.57
2022-07-26T23:04:40.821Z,21.56
2022-07-26T23:07:30.402Z,21.54
2022-07-26T23:10:19.425Z,21.53
2022-07-26T23:13:06.428Z,21.50
2022-07-26T23:15:58.113Z,21.48
2022-07-26T23:18:47.141Z,21.47
2022-07-26T23:21:34.033Z,21.44
2022-07-26T23:24:21.890Z,21.41
2022-07-26T23:27:09.136Z,21.40
2022-07-26T23:29:56.167Z,21.38
2022-07-26T23:32:43.245Z,21.37
2022-07-26T23:35:30.121Z,21.36
2022-07-26T23:38:17.077Z,21.34
2022-07-26T23:41:04.070Z,21.32
2022-07-26T23:43:51.542Z,21.29
2022-07-26T23:46:38.653Z,21.26
2022-07-26T23:49:25.928Z,21.21
2022-07-26T23:52:13.096Z,21.20
2022-07-26T23:55:00.023Z,21.17
2022-07-26T23:57:46.917Z,21.17
